createdAt,value
2023-02-04T00:01:14.587Z,10.60
2023-02-04T00:03:42.103Z,10.59
2023-02-04T00:06:09.476Z,10.61
2023-02-04T00:08:37.715Z,10.60
2023-02-04T00:11:05.732Z,10.60
2023-02-04T00:13:33.201Z,10.58
2023-02-04T00:16:01.605Z,10.57
2023-02-04T00:18:29.549Z,10.57
2023-02-04T00:20:57.022Z,10.55
2023-02-04T00:23:24.449Z,10.61
2023-02-04T00:25:52.035Z,10.59
2023-02-04T00:28:19.599Z,10.58
2023-02-04T00:30:48.299Z,10.63
2023-02-04T00:33:15.695Z,10.56
2023-02-04T00:35:43.873Z,10.53
2023-02-04T00:38:11.134Z,10.56
2023-02-04T00:40:38.629Z,10.54
2023-02-04T00:43:06.098Z,10.54
2023-02-04T00:45:33.825Z,10.53
2023-02-04T00:48:01.321Z,10.54
2023-02-04T00:50:29.060Z,10.51
2023-02-04T00:52:56.737Z,10.52
2023-02-04T00:55:24.240Z,10.52
2023-02-04T00:57:51.677Z,10.55
2023-02-04T01:00:19.524Z,10.62
2023-02-04T01:02:47.018Z,10.58
2023-02-04T01:05:14.633Z,10.49
2023-02-04T01:07:42.060Z,10.45
2023-02-04T01:10:09.871Z,10.43
2023-02-04T01:12:38.150Z,10.42
2023-02-04T01:15:06.772Z,10.42
2023-02-04T01:17:34.219Z,10.46
2023-02-04T01:20:01.743Z,10.39
2023-02-04T01:22:29.180Z,10.37
2023-02-04T01:24:56.740Z,10.36
2023-02-04T01:27:41.034Z,10.41
2023-02-04T01:30:09.659Z,10.38
2023-02-04T01:32:37.233Z,10.39
2023-02-04T01:35:05.144Z,10.36
2023-02-04T01:37:33.478Z,10.38
2023-02-04T01:40:01.020Z,10.34
2023-02-04T01:42:28.744Z,10.36
2023-02-04T01:44:56.196Z,10.35
2023-02-04T01:47:24.855Z,10.36
2023-02-04T01:49:55.669Z,10.34
2023-02-04T01:52:23.954Z,10.33
2023-02-04T01:54:53.352Z,10.32
2023-02-04T01:57:20.891Z,10.30
2023-02-04T01:59:53.098Z,10.29
2023-02-04T02:02:40.983Z,10.26
2023-02-04T02:05:14.806Z,10.26
2023-02-04T02:07:42.623Z,10.23
2023-02-04T02:10:12.355Z,10.25
2023-02-04T02:12:41.087Z,10.26
2023-02-04T02:15:10.840Z,10.26
2023-02-04T02:17:40.296Z,10.24
2023-02-04T02:20:12.036Z,10.22
2023-02-04T02:22:54.129Z,10.19
2023-02-04T02:25:22.018Z,10.20
2023-02-04T02:27:49.697Z,10.19
2023-02-04T02:30:19.923Z,10.27
2023-02-04T02:32:48.792Z,10.22
2023-02-04T02:35:16.739Z,10.18
2023-02-04T02:37:44.346Z,10.19
2023-02-04T02:40:14.149Z,10.21
2023-02-04T02:42:44.439Z,10.22
2023-02-04T02:45:22.383Z,10.33
2023-02-04T02:47:51.157Z,10.14
2023-02-04T02:50:23.289Z,10.10
2023-02-04T02:52:51.718Z,10.10
2023-02-04T02:55:21.981Z,10.10
2023-02-04T02:57:50.245Z,10.10
2023-02-04T03:00:26.600Z,10.10
2023-02-04T03:03:05.472Z,10.13
2023-02-04T03:05:39.127Z,10.12
2023-02-04T03:08:07.646Z,10.10
2023-02-04T03:10:36.454Z,10.08
2023-02-04T03:13:04.768Z,10.16
2023-02-04T03:15:33.036Z,10.12
2023-02-04T03:18:01.324Z,10.06
2023-02-04T03:20:31.694Z,10.01
2023-02-04T03:22:59.847Z,9.99
2023-02-04T03:25:28.425Z,10.00
2023-02-04T03:27:58.985Z,9.98
2023-02-04T03:30:27.385Z,10.00
2023-02-04T03:32:55.174Z,10.01
2023-02-04T03:35:22.838Z,9.99
2023-02-04T03:37:50.436Z,10.01
2023-02-04T03:40:17.947Z,10.00
2023-02-04T03:42:45.379Z,10.10
2023-02-04T03:45:12.909Z,10.06
2023-02-04T03:47:40.436Z,10.07
2023-02-04T03:50:08.260Z,10.03
2023-02-04T03:52:35.712Z,10.05
2023-02-04T03:55:03.282Z,10.02
2023-02-04T03:57:30.671Z,10.05
2023-02-04T03:59:58.171Z,10.05
2023-02-04T04:02:25.663Z,10.04
2023-02-04T04:04:53.242Z,10.03
2023-02-04T04:07:20.631Z,10.01
2023-02-04T04:09:48.047Z,10.02
2023-02-04T04:12:15.321Z,9.99
2023-02-04T04:14:42.665Z,9.98
2023-02-04T04:17:10.119Z,10.02
2023-02-04T04:19:37.663Z,10.02
2023-02-04T04:22:05.080Z,9.98
2023-02-04T04:24:32.562Z,10.00
2023-02-04T04:26:59.776Z,10.01
2023-02-04T04:29:27.223Z,10.00
2023-02-04T04:31:54.704Z,10.00
2023-02-04T04:34:22.270Z,9.98
2023-02-04T04:36:49.662Z,9.98
2023-02-04T04:39:16.961Z,9.96
2023-02-04T04:41:44.255Z,9.96
2023-02-04T04:44:11.692Z,10.03
2023-02-04T04:46:40.745Z,9.96
2023-02-04T04:49:08.324Z,9.97
2023-02-04T04:51:35.708Z,9.97
2023-02-04T04:54:03.236Z,9.97
2023-02-04T04:56:30.630Z,9.99
2023-02-04T04:58:57.957Z,10.02
2023-02-04T05:01:25.395Z,10.18
2023-02-04T05:03:52.895Z,10.27
2023-02-04T05:06:25.334Z,10.05
2023-02-04T05:08:53.046Z,10.00
2023-02-04T05:11:20.898Z,9.96
2023-02-04T05:13:48.618Z,9.96
2023-02-04T05:16:17.445Z,10.01
2023-02-04T05:18:45.054Z,10.01
2023-02-04T05:21:12.456Z,9.98
2023-02-04T05:23:39.989Z,9.96
2023-02-04T05:26:07.425Z,9.92
2023-02-04T05:28:35.057Z,9.96
2023-02-04T05:31:02.859Z,10.00
2023-02-04T05:33:30.309Z,9.95
2023-02-04T05:35:57.600Z,9.93
2023-02-04T05:38:24.950Z,10.00
2023-02-04T05:40:52.211Z,9.96
2023-02-04T05:43:19.590Z,9.90
2023-02-04T05:45:46.976Z,9.90
2023-02-04T05:48:14.493Z,9.89
2023-02-04T05:50:41.871Z,9.88
2023-02-04T05:53:09.702Z,9.97
2023-02-04T05:55:37.045Z,9.98
2023-02-04T05:58:04.539Z,9.90
2023-02-04T06:00:32.421Z,9.82
2023-02-04T06:03:00.113Z,9.82
2023-02-04T06:05:27.550Z,9.86
2023-02-04T06:07:54.975Z,9.95
2023-02-04T06:10:22.242Z,9.98
2023-02-04T06:12:49.605Z,9.91
2023-02-04T06:15:16.970Z,9.92
2023-02-04T06:17:45.716Z,9.93
2023-02-04T06:20:15.074Z,9.82
2023-02-04T06:22:42.528Z,9.86
2023-02-04T06:25:09.795Z,9.80
2023-02-04T06:27:37.290Z,9.69
2023-02-04T06:30:05.523Z,9.73
2023-02-04T06:32:33.299Z,9.89
2023-02-04T06:35:00.715Z,9.85
2023-02-04T06:37:28.034Z,9.70
2023-02-04T06:39:57.502Z,9.56
2023-02-04T06:42:28.037Z,9.58
2023-02-04T06:44:55.731Z,9.64
2023-02-04T06:47:23.301Z,9.56
2023-02-04T06:49:50.694Z,9.49
2023-02-04T06:52:18.034Z,9.45
2023-02-04T06:54:45.419Z,9.42
2023-02-04T06:57:12.894Z,9.42
2023-02-04T06:59:41.515Z,9.48
2023-02-04T07:02:11.155Z,9.50
2023-02-04T07:04:38.668Z,9.58
2023-02-04T07:07:05.935Z,9.58
2023-02-04T07:09:33.352Z,9.60
2023-02-04T07:12:00.886Z,9.68
2023-02-04T07:14:28.509Z,9.63
2023-02-04T07:16:58.251Z,9.67
2023-02-04T07:19:26.017Z,9.68
2023-02-04T07:21:56.956Z,9.53
2023-02-04T07:24:25.265Z,9.52
2023-02-04T07:26:52.883Z,9.68
2023-02-04T07:29:25.620Z,9.64
2023-02-04T07:31:53.822Z,9.54
2023-02-04T07:34:21.645Z,9.49
2023-02-04T07:36:49.212Z,9.60
2023-02-04T07:39:16.794Z,9.49
2023-02-04T07:41:45.790Z,9.46
2023-02-04T07:44:15.163Z,9.55
2023-02-04T07:46:42.540Z,9.60
2023-02-04T07:49:09.847Z,9.59
2023-02-04T07:51:37.281Z,9.64
2023-02-04T07:54:04.804Z,9.66
2023-02-04T07:56:32.336Z,9.51
2023-02-04T07:58:59.738Z,9.46
2023-02-04T08:01:27.099Z,9.47
2023-02-04T08:03:54.513Z,9.53
2023-02-04T08:06:22.096Z,9.74
2023-02-04T08:08:49.532Z,9.61
2023-02-04T08:11:16.987Z,9.60
2023-02-04T08:13:44.193Z,9.61
2023-02-04T08:16:12.019Z,9.63
2023-02-04T08:18:39.501Z,9.68
2023-02-04T08:21:07.142Z,9.72
2023-02-04T08:23:34.721Z,9.75
2023-02-04T08:26:02.282Z,9.81
2023-02-04T08:28:29.758Z,9.85
2023-02-04T08:30:57.380Z,9.91
2023-02-04T08:33:24.955Z,9.93
2023-02-04T08:35:52.913Z,9.93
2023-02-04T08:38:20.331Z,9.95
2023-02-04T08:40:48.377Z,9.99
2023-02-04T08:43:15.800Z,10.01
2023-02-04T08:45:43.278Z,10.06
2023-02-04T08:48:10.558Z,10.09
2023-02-04T08:50:39.140Z,10.11
2023-02-04T08:53:06.688Z,10.17
2023-02-04T08:55:34.200Z,10.17
2023-02-04T08:58:03.038Z,10.20
2023-02-04T09:00:31.421Z,10.23
2023-02-04T09:02:59.224Z,10.27
2023-02-04T09:05:26.739Z,10.32
2023-02-04T09:07:54.227Z,10.35
2023-02-04T09:10:21.733Z,10.38
2023-02-04T09:12:49.224Z,10.42
2023-02-04T09:15:16.805Z,10.41
2023-02-04T09:17:44.296Z,10.42
2023-02-04T09:20:12.133Z,10.40
2023-02-04T09:22:39.649Z,10.43
2023-02-04T09:25:07.608Z,10.39
2023-02-04T09:27:34.994Z,10.40
2023-02-04T09:30:02.552Z,10.42
2023-02-04T09:32:29.960Z,10.49
2023-02-04T09:34:57.468Z,10.54
2023-02-04T09:37:27.195Z,10.57
2023-02-04T09:39:54.888Z,10.60
2023-02-04T09:42:26.209Z,10.64
2023-02-04T09:44:54.018Z,10.70
2023-02-04T09:47:24.281Z,10.75
2023-02-04T09:49:52.408Z,10.84
2023-02-04T09:52:20.423Z,10.88
2023-02-04T09:54:48.273Z,10.85
2023-02-04T09:57:19.335Z,10.93
2023-02-04T09:59:47.239Z,10.88
2023-02-04T10:02:24.982Z,10.91
2023-02-04T10:04:57.651Z,10.95
2023-02-04T10:07:27.528Z,10.97
2023-02-04T10:09:55.545Z,10.97
2023-02-04T10:12:23.160Z,11.01
2023-02-04T10:14:50.527Z,11.01
2023-02-04T10:17:22.335Z,11.01
2023-02-04T10:19:50.492Z,11.05
2023-02-04T10:22:20.877Z,10.94
2023-02-04T10:24:48.415Z,10.93
2023-02-04T10:27:16.533Z,11.00
2023-02-04T10:29:56.726Z,11.09
2023-02-04T10:32:43.820Z,11.11
2023-02-04T10:35:15.611Z,11.10
2023-02-04T10:37:43.515Z,10.94
2023-02-04T10:40:35.292Z,10.79
2023-02-04T10:43:17.285Z,10.78
2023-02-04T10:46:03.086Z,10.85
2023-02-04T10:48:39.504Z,10.90
2023-02-04T10:51:09.454Z,10.84
2023-02-04T10:53:56.348Z,10.81
2023-02-04T10:56:23.931Z,10.89
2023-02-04T10:58:51.405Z,10.72
2023-02-04T11:01:19.050Z,10.69
2023-02-04T11:03:49.557Z,10.68
2023-02-04T11:06:23.250Z,10.83
2023-02-04T11:08:53.692Z,10.83
2023-02-04T11:11:26.402Z,10.87
2023-02-04T11:13:55.263Z,10.85
2023-02-04T11:16:25.741Z,10.72
2023-02-04T11:18:59.758Z,10.64
2023-02-04T11:21:33.909Z,10.75
2023-02-04T11:24:05.019Z,10.72
2023-02-04T11:26:36.378Z,10.70
2023-02-04T11:29:03.835Z,10.59
2023-02-04T11:31:34.289Z,10.57
2023-02-04T11:34:29.794Z,10.55
2023-02-04T11:36:57.384Z,10.61
2023-02-04T11:39:32.232Z,10.69
2023-02-04T11:42:01.085Z,10.81
2023-02-04T11:44:29.026Z,10.90
2023-02-04T11:46:58.627Z,10.96
2023-02-04T11:49:27.552Z,10.85
2023-02-04T11:52:12.829Z,10.88
2023-02-04T11:54:40.464Z,10.87
2023-02-04T11:57:11.994Z,10.97
2023-02-04T11:59:39.466Z,10.92
2023-02-04T12:02:16.875Z,11.01
2023-02-04T12:05:12.092Z,11.08
2023-02-04T12:07:40.291Z,11.10
2023-02-04T12:10:19.599Z,11.15
2023-02-04T12:12:57.940Z,11.13
2023-02-04T12:15:38.841Z,11.19
2023-02-04T12:18:16.777Z,11.18
2023-02-04T12:20:44.316Z,11.20
2023-02-04T12:23:11.763Z,11.33
2023-02-04T12:25:39.371Z,11.30
2023-02-04T12:28:10.225Z,11.20
2023-02-04T12:30:41.797Z,11.22
2023-02-04T12:33:09.903Z,11.01
2023-02-04T12:35:37.626Z,11.03
2023-02-04T12:38:05.319Z,11.05
2023-02-04T12:40:33.006Z,11.10
2023-02-04T12:43:00.607Z,11.16
2023-02-04T12:45:28.025Z,11.15
2023-02-04T12:47:55.292Z,11.05
2023-02-04T12:50:23.260Z,11.20
2023-02-04T12:52:52.275Z,11.18
2023-02-04T12:55:22.095Z,11.09
2023-02-04T12:57:49.700Z,11.13
2023-02-04T13:00:19.376Z,11.19
2023-02-04T13:02:47.752Z,11.15
2023-02-04T13:05:16.656Z,11.11
2023-02-04T13:07:44.293Z,11.20
2023-02-04T13:10:14.047Z,11.15
2023-02-04T13:12:41.575Z,11.12
2023-02-04T13:15:09.944Z,11.11
2023-02-04T13:17:37.568Z,11.10
2023-02-04T13:20:06.070Z,11.02
2023-02-04T13:22:33.553Z,11.16
2023-02-04T13:25:02.726Z,11.14
2023-02-04T13:27:32.019Z,11.00
2023-02-04T13:29:59.431Z,10.95
2023-02-04T13:32:27.375Z,10.90
2023-02-04T13:34:54.764Z,10.91
2023-02-04T13:37:22.198Z,10.98
2023-02-04T13:39:49.486Z,11.01
2023-02-04T13:42:16.784Z,11.03
2023-02-04T13:44:44.229Z,11.03
2023-02-04T13:47:11.641Z,11.01
2023-02-04T13:49:38.914Z,10.99
2023-02-04T13:52:06.269Z,10.98
2023-02-04T13:54:34.627Z,10.98
2023-02-04T13:57:03.818Z,11.05
2023-02-04T13:59:31.392Z,10.99
2023-02-04T14:01:58.988Z,10.90
2023-02-04T14:04:27.194Z,10.93
2023-02-04T14:06:55.488Z,11.05
2023-02-04T14:09:23.342Z,10.92
2023-02-04T14:11:51.901Z,10.75
2023-02-04T14:14:19.315Z,10.64
2023-02-04T14:16:46.914Z,10.65
2023-02-04T14:19:15.141Z,10.70
2023-02-04T14:21:42.603Z,10.76
2023-02-04T14:24:09.880Z,10.83
2023-02-04T14:26:37.420Z,10.75
2023-02-04T14:29:04.948Z,10.62
2023-02-04T14:31:33.101Z,10.72
2023-02-04T14:34:00.541Z,10.74
2023-02-04T14:36:28.060Z,10.70
2023-02-04T14:38:56.020Z,10.77
2023-02-04T14:41:23.473Z,10.73
2023-02-04T14:43:51.287Z,10.66
2023-02-04T14:46:18.684Z,10.67
2023-02-04T14:48:45.917Z,10.71
2023-02-04T14:51:13.459Z,10.86
2023-02-04T14:53:44.080Z,10.79
2023-02-04T14:56:15.946Z,10.69
2023-02-04T14:58:43.317Z,10.68
2023-02-04T15:01:11.006Z,10.69
2023-02-04T15:03:38.447Z,10.77
2023-02-04T15:06:06.338Z,10.84
2023-02-04T15:08:34.000Z,10.87
2023-02-04T15:11:01.490Z,10.71
2023-02-04T15:13:29.466Z,10.68
2023-02-04T15:15:59.376Z,10.68
2023-02-04T15:18:26.961Z,10.76
2023-02-04T15:20:54.447Z,10.73
2023-02-04T15:23:21.806Z,10.85
2023-02-04T15:25:51.666Z,10.85
2023-02-04T15:28:19.169Z,10.66
2023-02-04T15:30:46.872Z,10.62
2023-02-04T15:33:16.836Z,10.72
2023-02-04T15:35:44.399Z,10.68
2023-02-04T15:38:11.790Z,10.71
2023-02-04T15:40:39.152Z,10.74
2023-02-04T15:43:06.378Z,10.64
2023-02-04T15:45:33.772Z,10.60
2023-02-04T15:48:01.277Z,10.69
2023-02-04T15:50:30.402Z,10.71
2023-02-04T15:52:58.433Z,10.58
2023-02-04T15:55:25.866Z,10.60
2023-02-04T15:57:53.176Z,10.60
2023-02-04T16:00:20.909Z,10.51
2023-02-04T16:02:48.849Z,10.58
2023-02-04T16:05:17.045Z,10.56
2023-02-04T16:07:47.306Z,10.51
2023-02-04T16:10:18.008Z,10.52
2023-02-04T16:12:47.547Z,10.59
2023-02-04T16:15:15.356Z,10.52
2023-02-04T16:17:43.733Z,10.48
2023-02-04T16:20:11.779Z,10.48
2023-02-04T16:22:39.258Z,10.45
2023-02-04T16:25:07.036Z,10.50
2023-02-04T16:27:34.725Z,10.40
2023-02-04T16:30:02.662Z,10.37
2023-02-04T16:32:30.173Z,10.27
2023-02-04T16:34:59.682Z,10.16
2023-02-04T16:37:27.717Z,10.16
2023-02-04T16:39:55.253Z,10.05
2023-02-04T16:42:22.917Z,9.89
2023-02-04T16:44:50.301Z,9.98
2023-02-04T16:47:17.611Z,10.06
2023-02-04T16:49:44.952Z,10.00
2023-02-04T16:52:12.436Z,9.95
2023-02-04T16:54:40.172Z,9.80
2023-02-04T16:57:07.588Z,9.80
2023-02-04T16:59:35.804Z,9.84
2023-02-04T17:02:03.249Z,9.89
2023-02-04T17:04:32.432Z,9.83
2023-02-04T17:07:00.628Z,9.93
2023-02-04T17:09:28.314Z,9.99
2023-02-04T17:11:55.858Z,9.98
2023-02-04T17:14:24.872Z,9.82
2023-02-04T17:16:53.246Z,9.80
2023-02-04T17:19:21.041Z,9.78
2023-02-04T17:21:49.178Z,9.85
2023-02-04T17:24:16.836Z,9.69
2023-02-04T17:26:44.333Z,9.65
2023-02-04T17:29:13.504Z,9.73
2023-02-04T17:31:44.778Z,9.88
2023-02-04T17:34:12.689Z,10.04
2023-02-04T17:36:40.125Z,9.89
2023-02-04T17:39:07.744Z,9.91
2023-02-04T17:41:35.308Z,9.92
2023-02-04T17:44:03.655Z,9.94
2023-02-04T17:46:31.462Z,9.76
2023-02-04T17:48:59.028Z,9.73
2023-02-04T17:51:26.271Z,9.76
2023-02-04T17:53:53.659Z,9.90
2023-02-04T17:56:21.566Z,9.85
2023-02-04T17:58:49.593Z,9.85
2023-02-04T18:01:21.659Z,9.77
2023-02-04T18:03:49.928Z,9.97
2023-02-04T18:06:24.719Z,10.11
2023-02-04T18:08:53.037Z,10.01
2023-02-04T18:11:27.875Z,9.97
2023-02-04T18:14:02.274Z,9.95
2023-02-04T18:16:34.010Z,9.89
2023-02-04T18:19:10.411Z,9.87
2023-02-04T18:21:39.341Z,9.75
2023-02-04T18:24:06.685Z,9.86
2023-02-04T18:26:34.150Z,9.85
2023-02-04T18:29:17.945Z,9.82
2023-02-04T18:31:52.402Z,9.84
2023-02-04T18:34:28.029Z,9.93
2023-02-04T18:36:55.544Z,9.90
2023-02-04T18:39:29.285Z,9.91
2023-02-04T18:41:56.763Z,9.95
2023-02-04T18:44:30.522Z,10.07
2023-02-04T18:46:57.892Z,10.03
2023-02-04T18:49:27.077Z,10.10
2023-02-04T18:51:55.523Z,10.07
2023-02-04T18:54:34.576Z,10.01
2023-02-04T18:57:16.016Z,9.97
2023-02-04T18:59:43.793Z,10.05
2023-02-04T19:02:36.456Z,10.22
2023-02-04T19:05:26.154Z,10.17
2023-02-04T19:08:24.640Z,10.15
2023-02-04T19:10:54.370Z,10.14
2023-02-04T19:13:39.657Z,9.94
2023-02-04T19:16:26.813Z,9.99
2023-02-04T19:18:55.524Z,10.05
2023-02-04T19:21:31.591Z,10.07
2023-02-04T19:24:09.642Z,10.05
2023-02-04T19:26:52.793Z,10.14
2023-02-04T19:29:24.888Z,10.24
2023-02-04T19:31:56.151Z,10.20
2023-02-04T19:34:28.489Z,10.14
2023-02-04T19:36:55.931Z,10.03
2023-02-04T19:39:29.833Z,9.97
2023-02-04T19:41:58.189Z,9.87
2023-02-04T19:44:37.411Z,9.90
2023-02-04T19:47:29.360Z,9.97
2023-02-04T19:50:26.954Z,9.93
2023-02-04T19:53:07.159Z,9.94
2023-02-04T19:55:52.005Z,9.93
2023-02-04T19:58:21.373Z,9.89
2023-02-04T20:01:08.412Z,10.09
2023-02-04T20:03:46.808Z,9.95
2023-02-04T20:06:33.414Z,9.94
2023-02-04T20:09:02.657Z,9.83
2023-02-04T20:11:30.191Z,9.91
2023-02-04T20:14:19.172Z,9.77
2023-02-04T20:16:47.069Z,9.88
2023-02-04T20:19:30.862Z,9.90
2023-02-04T20:22:23.668Z,9.85
2023-02-04T20:24:54.398Z,9.85
2023-02-04T20:27:26.524Z,9.90
2023-02-04T20:30:14.705Z,9.77
2023-02-04T20:32:46.655Z,9.82
2023-02-04T20:35:17.392Z,9.92
2023-02-04T20:37:51.449Z,9.89
2023-02-04T20:40:32.515Z,9.90
2023-02-04T20:43:24.240Z,9.92
2023-02-04T20:46:04.886Z,10.01
2023-02-04T20:48:37.274Z,9.92
2023-02-04T20:51:14.847Z,9.96
2023-02-04T20:53:53.015Z,9.69
2023-02-04T20:56:26.476Z,9.63
2023-02-04T20:59:15.984Z,9.65
2023-02-04T21:01:51.245Z,9.55
2023-02-04T21:04:43.256Z,9.55
2023-02-04T21:07:17.084Z,9.51
2023-02-04T21:09:45.106Z,9.49
2023-02-04T21:12:12.703Z,9.48
2023-02-04T21:14:42.772Z,9.55
2023-02-04T21:17:10.322Z,9.56
2023-02-04T21:19:37.986Z,9.58
2023-02-04T21:22:05.593Z,9.55
2023-02-04T21:24:33.868Z,9.62
2023-02-04T21:27:01.414Z,9.58
2023-02-04T21:29:28.937Z,9.55
2023-02-04T21:31:56.248Z,9.63
2023-02-04T21:34:23.840Z,9.61
2023-02-04T21:36:54.449Z,9.64
2023-02-04T21:39:21.985Z,9.56
2023-02-04T21:42:09.552Z,9.58
2023-02-04T21:44:37.999Z,9.59
2023-02-04T21:47:05.790Z,9.56
2023-02-04T21:49:33.234Z,9.62
2023-02-04T21:52:00.528Z,9.61
2023-02-04T21:54:28.112Z,9.59
2023-02-04T21:56:55.939Z,9.59
2023-02-04T21:59:25.251Z,9.65
2023-02-04T22:01:52.677Z,9.62
2023-02-04T22:04:20.116Z,9.70
2023-02-04T22:06:47.452Z,9.73
2023-02-04T22:09:15.979Z,9.73
2023-02-04T22:11:43.556Z,9.75
2023-02-04T22:14:11.045Z,9.61
2023-02-04T22:16:38.288Z,9.64
2023-02-04T22:19:05.621Z,9.66
2023-02-04T22:21:34.870Z,9.65
2023-02-04T22:24:02.413Z,9.61
2023-02-04T22:26:31.859Z,9.68
2023-02-04T22:28:59.388Z,9.65
2023-02-04T22:31:26.842Z,9.72
2023-02-04T22:33:54.607Z,9.76
2023-02-04T22:36:22.062Z,9.68
2023-02-04T22:38:49.858Z,9.78
2023-02-04T22:41:17.438Z,9.61
2023-02-04T22:43:44.854Z,9.65
2023-02-04T22:46:12.187Z,9.51
2023-02-04T22:48:39.581Z,9.41
2023-02-04T22:51:06.852Z,9.39
2023-02-04T22:53:34.354Z,9.38
2023-02-04T22:56:01.768Z,9.46
2023-02-04T22:58:29.274Z,9.44
2023-02-04T23:00:56.709Z,9.45
2023-02-04T23:03:24.392Z,9.47
2023-02-04T23:05:51.925Z,9.51
2023-02-04T23:08:19.882Z,9.55
2023-02-04T23:10:47.313Z,9.54
2023-02-04T23:13:16.614Z,9.55
2023-02-04T23:15:44.658Z,9.54
2023-02-04T23:18:12.033Z,9.60
2023-02-04T23:20:40.867Z,9.66
2023-02-04T23:23:10.660Z,9.70
2023-02-04T23:25:38.169Z,9.62
2023-02-04T23:28:05.832Z,9.80
2023-02-04T23:30:33.364Z,9.84
2023-02-04T23:33:00.854Z,9.68
2023-02-04T23:35:28.373Z,9.60
2023-02-04T23:37:55.897Z,9.55
2023-02-04T23:40:23.524Z,9.50
2023-02-04T23:42:51.601Z,9.55
2023-02-04T23:45:19.051Z,9.55
2023-02-04T23:47:46.671Z,9.47
2023-02-04T23:50:14.104Z,9.47
2023-02-04T23:52:41.597Z,9.58
2023-02-04T23:55:08.913Z,9.57
2023-02-04T23:57:36.313Z,9.54
